sensor_id;sensor_type;location;lat;lon;timestamp;P1;durP1;ratioP1;P2;durP2;ratioP2
43706;SDS011;61348;53.392;-6.248;2023-02-13T00:00:18;15.98;;;7.68;;
43706;SDS011;61348;53.392;-6.248;2023-02-13T00:02:49;14.73;;;8.50;;
43706;SDS011;61348;53.392;-6.248;2023-02-13T00:05:16;18.02;;;7.70;;
43706;SDS011;61348;53.392;-6.248;2023-02-13T00:07:43;15.52;;;8.45;;
43706;SDS011;61348;53.392;-6.248;2023-02-13T00:10:10;20.67;;;8.18;;
43706;SDS011;61348;53.392;-6.248;2023-02-13T00:12:38;14.75;;;8.20;;
43706;SDS011;61348;53.392;-6.248;2023-02-13T00:15:04;18.23;;;9.65;;
43706;SDS011;61348;53.392;-6.248;2023-02-13T00:17:32;19.45;;;8.23;;
43706;SDS011;61348;53.392;-6.248;2023-02-13T00:19:59;14.73;;;6.95;;
43706;SDS011;61348;53.392;-6.248;2023-02-13T00:22:26;18.88;;;9.45;;
43706;SDS011;61348;53.392;-6.248;2023-02-13T00:24:53;14.98;;;8.23;;
43706;SDS011;61348;53.392;-6.248;2023-02-13T00:27:20;19.17;;;9.32;;
43706;SDS011;61348;53.392;-6.248;2023-02-13T00:29:46;15.35;;;8.88;;
43706;SDS011;61348;53.392;-6.248;2023-02-13T00:32:13;16.63;;;10.00;;
43706;SDS011;61348;53.392;-6.248;2023-02-13T00:34:40;20.08;;;11.43;;
43706;SDS011;61348;53.392;-6.248;2023-02-13T00:37:09;22.30;;;9.65;;
43706;SDS011;61348;53.392;-6.248;2023-02-13T00:39:36;20.55;;;9.27;;
43706;SDS011;61348;53.392;-6.248;2023-02-13T00:42:03;17.50;;;10.40;;
43706;SDS011;61348;53.392;-6.248;2023-02-13T00:44:31;19.08;;;9.43;;
43706;SDS011;61348;53.392;-6.248;2023-02-13T00:46:58;21.00;;;9.40;;
43706;SDS011;61348;53.392;-6.248;2023-02-13T00:49:24;17.17;;;8.82;;
43706;SDS011;61348;53.392;-6.248;2023-02-13T00:51:51;15.45;;;8.77;;
43706;SDS011;61348;53.392;-6.248;2023-02-13T00:54:19;14.25;;;7.90;;
43706;SDS011;61348;53.392;-6.248;2023-02-13T00:56:46;19.33;;;10.02;;
43706;SDS011;61348;53.392;-6.248;2023-02-13T00:59:13;20.02;;;10.00;;
43706;SDS011;61348;53.392;-6.248;2023-02-13T01:01:40;14.50;;;7.80;;
43706;SDS011;61348;53.392;-6.248;2023-02-13T01:04:07;15.32;;;8.30;;
43706;SDS011;61348;53.392;-6.248;2023-02-13T01:06:35;24.70;;;9.70;;
43706;SDS011;61348;53.392;-6.248;2023-02-13T01:09:03;18.10;;;8.75;;
43706;SDS011;61348;53.392;-6.248;2023-02-13T01:11:30;22.40;;;9.73;;
43706;SDS011;61348;53.392;-6.248;2023-02-13T01:13:57;17.00;;;9.25;;
43706;SDS011;61348;53.392;-6.248;2023-02-13T01:16:24;16.90;;;8.95;;
43706;SDS011;61348;53.392;-6.248;2023-02-13T01:18:51;16.48;;;8.60;;
43706;SDS011;61348;53.392;-6.248;2023-02-13T01:21:18;16.90;;;9.00;;
43706;SDS011;61348;53.392;-6.248;2023-02-13T01:23:46;17.13;;;9.23;;
43706;SDS011;61348;53.392;-6.248;2023-02-13T01:26:21;17.70;;;8.65;;
43706;SDS011;61348;53.392;-6.248;2023-02-13T01:28:52;24.80;;;9.75;;
43706;SDS011;61348;53.392;-6.248;2023-02-13T01:31:20;16.15;;;8.32;;
43706;SDS011;61348;53.392;-6.248;2023-02-13T01:33:47;17.63;;;8.98;;
43706;SDS011;61348;53.392;-6.248;2023-02-13T01:36:14;15.60;;;9.38;;
43706;SDS011;61348;53.392;-6.248;2023-02-13T01:38:41;23.45;;;10.30;;
43706;SDS011;61348;53.392;-6.248;2023-02-13T01:41:08;17.52;;;9.98;;
43706;SDS011;61348;53.392;-6.248;2023-02-13T01:43:43;14.63;;;8.60;;
43706;SDS011;61348;53.392;-6.248;2023-02-13T01:46:12;21.30;;;10.45;;
43706;SDS011;61348;53.392;-6.248;2023-02-13T01:48:44;17.63;;;9.43;;
43706;SDS011;61348;53.392;-6.248;2023-02-13T01:51:15;28.55;;;10.30;;
43706;SDS011;61348;53.392;-6.248;2023-02-13T01:53:55;18.48;;;9.00;;
43706;SDS011;61348;53.392;-6.248;2023-02-13T01:59:10;19.95;;;9.18;;
43706;SDS011;61348;53.392;-6.248;2023-02-13T02:01:45;20.20;;;9.93;;
43706;SDS011;61348;53.392;-6.248;2023-02-13T02:04:15;17.50;;;9.35;;
43706;SDS011;61348;53.392;-6.248;2023-02-13T02:06:45;17.90;;;9.27;;
43706;SDS011;61348;53.392;-6.248;2023-02-13T02:09:21;18.50;;;9.40;;
43706;SDS011;61348;53.392;-6.248;2023-02-13T02:12:13;17.70;;;9.13;;
43706;SDS011;61348;53.392;-6.248;2023-02-13T02:14:48;25.00;;;11.55;;
43706;SDS011;61348;53.392;-6.248;2023-02-13T02:17:16;14.88;;;8.63;;
43706;SDS011;61348;53.392;-6.248;2023-02-13T02:33:02;19.50;;;8.32;;
43706;SDS011;61348;53.392;-6.248;2023-02-13T02:35:59;17.55;;;8.88;;
43706;SDS011;61348;53.392;-6.248;2023-02-13T02:38:59;15.18;;;8.68;;
43706;SDS011;61348;53.392;-6.248;2023-02-13T02:44:27;21.67;;;9.00;;
43706;SDS011;61348;53.392;-6.248;2023-02-13T02:49:51;17.77;;;7.43;;
43706;SDS011;61348;53.392;-6.248;2023-02-13T03:01:14;18.27;;;8.02;;
43706;SDS011;61348;53.392;-6.248;2023-02-13T03:04:02;20.05;;;8.90;;
43706;SDS011;61348;53.392;-6.248;2023-02-13T03:06:52;15.77;;;8.00;;
43706;SDS011;61348;53.392;-6.248;2023-02-13T03:09:28;17.30;;;8.77;;
43706;SDS011;61348;53.392;-6.248;2023-02-13T03:12:18;14.73;;;8.18;;
43706;SDS011;61348;53.392;-6.248;2023-02-13T03:15:06;17.52;;;8.93;;
43706;SDS011;61348;53.392;-6.248;2023-02-13T03:17:34;16.63;;;8.27;;
43706;SDS011;61348;53.392;-6.248;2023-02-13T03:20:27;19.45;;;8.80;;
43706;SDS011;61348;53.392;-6.248;2023-02-13T03:23:25;16.85;;;8.20;;
43706;SDS011;61348;53.392;-6.248;2023-02-13T03:34:01;19.98;;;8.63;;
43706;SDS011;61348;53.392;-6.248;2023-02-13T03:36:44;18.20;;;7.38;;
43706;SDS011;61348;53.392;-6.248;2023-02-13T03:45:21;19.98;;;7.10;;
43706;SDS011;61348;53.392;-6.248;2023-02-13T03:48:23;20.52;;;7.95;;
43706;SDS011;61348;53.392;-6.248;2023-02-13T03:51:15;18.58;;;8.10;;
43706;SDS011;61348;53.392;-6.248;2023-02-13T03:53:48;13.38;;;6.95;;
43706;SDS011;61348;53.392;-6.248;2023-02-13T03:56:19;17.85;;;7.75;;
43706;SDS011;61348;53.392;-6.248;2023-02-13T03:59:07;17.92;;;8.45;;
43706;SDS011;61348;53.392;-6.248;2023-02-13T04:01:45;17.80;;;7.82;;
43706;SDS011;61348;53.392;-6.248;2023-02-13T04:07:02;13.23;;;6.25;;
43706;SDS011;61348;53.392;-6.248;2023-02-13T04:09:33;18.17;;;7.35;;
43706;SDS011;61348;53.392;-6.248;2023-02-13T04:12:20;18.27;;;7.27;;
43706;SDS011;61348;53.392;-6.248;2023-02-13T04:14:53;13.60;;;6.32;;
43706;SDS011;61348;53.392;-6.248;2023-02-13T04:20:27;19.15;;;7.78;;
43706;SDS011;61348;53.392;-6.248;2023-02-13T04:22:56;26.63;;;9.48;;
43706;SDS011;61348;53.392;-6.248;2023-02-13T04:25:29;15.73;;;6.97;;
43706;SDS011;61348;53.392;-6.248;2023-02-13T04:27:55;14.45;;;7.75;;
43706;SDS011;61348;53.392;-6.248;2023-02-13T04:30:22;17.52;;;7.10;;
43706;SDS011;61348;53.392;-6.248;2023-02-13T04:32:49;17.90;;;6.93;;
43706;SDS011;61348;53.392;-6.248;2023-02-13T04:35:18;15.18;;;7.25;;
43706;SDS011;61348;53.392;-6.248;2023-02-13T04:37:45;19.45;;;8.90;;
43706;SDS011;61348;53.392;-6.248;2023-02-13T04:40:11;19.90;;;8.73;;
43706;SDS011;61348;53.392;-6.248;2023-02-13T04:42:38;14.95;;;7.65;;
43706;SDS011;61348;53.392;-6.248;2023-02-13T04:45:05;17.52;;;7.53;;
43706;SDS011;61348;53.392;-6.248;2023-02-13T04:47:32;26.67;;;10.05;;
43706;SDS011;61348;53.392;-6.248;2023-02-13T04:49:59;18.50;;;7.65;;
43706;SDS011;61348;53.392;-6.248;2023-02-13T04:52:28;15.82;;;7.18;;
43706;SDS011;61348;53.392;-6.248;2023-02-13T04:54:54;16.95;;;6.70;;
43706;SDS011;61348;53.392;-6.248;2023-02-13T04:57:21;16.60;;;6.57;;
43706;SDS011;61348;53.392;-6.248;2023-02-13T04:59:48;19.33;;;7.10;;
43706;SDS011;61348;53.392;-6.248;2023-02-13T05:02:15;18.08;;;6.38;;
43706;SDS011;61348;53.392;-6.248;2023-02-13T05:04:41;15.43;;;6.90;;
43706;SDS011;61348;53.392;-6.248;2023-02-13T05:07:08;12.30;;;6.47;;
43706;SDS011;61348;53.392;-6.248;2023-02-13T05:09:35;10.60;;;6.18;;
43706;SDS011;61348;53.392;-6.248;2023-02-13T05:12:03;13.88;;;7.28;;
43706;SDS011;61348;53.392;-6.248;2023-02-13T05:14:31;23.88;;;7.05;;
43706;SDS011;61348;53.392;-6.248;2023-02-13T05:16:58;19.65;;;6.90;;
43706;SDS011;61348;53.392;-6.248;2023-02-13T05:19:24;17.48;;;8.18;;
43706;SDS011;61348;53.392;-6.248;2023-02-13T05:21:51;18.30;;;7.03;;
43706;SDS011;61348;53.392;-6.248;2023-02-13T05:24:37;16.33;;;5.93;;
43706;SDS011;61348;53.392;-6.248;2023-02-13T05:27:03;14.90;;;6.93;;
43706;SDS011;61348;53.392;-6.248;2023-02-13T05:29:30;11.52;;;6.57;;
43706;SDS011;61348;53.392;-6.248;2023-02-13T05:31:57;17.77;;;7.65;;
43706;SDS011;61348;53.392;-6.248;2023-02-13T05:34:25;16.88;;;7.10;;
43706;SDS011;61348;53.392;-6.248;2023-02-13T05:36:53;12.85;;;7.10;;
43706;SDS011;61348;53.392;-6.248;2023-02-13T05:39:20;16.77;;;6.65;;
43706;SDS011;61348;53.392;-6.248;2023-02-13T05:41:48;18.17;;;7.88;;
43706;SDS011;61348;53.392;-6.248;2023-02-13T05:44:15;14.45;;;7.78;;
43706;SDS011;61348;53.392;-6.248;2023-02-13T05:46:42;16.45;;;6.53;;
43706;SDS011;61348;53.392;-6.248;2023-02-13T05:49:11;13.77;;;7.20;;
43706;SDS011;61348;53.392;-6.248;2023-02-13T05:51:39;14.45;;;6.45;;
43706;SDS011;61348;53.392;-6.248;2023-02-13T05:54:07;17.30;;;7.38;;
43706;SDS011;61348;53.392;-6.248;2023-02-13T05:56:34;14.60;;;7.38;;
43706;SDS011;61348;53.392;-6.248;2023-02-13T05:59:01;17.83;;;7.15;;
43706;SDS011;61348;53.392;-6.248;2023-02-13T06:01:28;15.65;;;7.13;;
43706;SDS011;61348;53.392;-6.248;2023-02-13T06:03:55;13.57;;;6.13;;
43706;SDS011;61348;53.392;-6.248;2023-02-13T06:06:24;18.50;;;7.45;;
43706;SDS011;61348;53.392;-6.248;2023-02-13T06:08:51;13.90;;;7.75;;
43706;SDS011;61348;53.392;-6.248;2023-02-13T06:11:18;16.15;;;8.50;;
43706;SDS011;61348;53.392;-6.248;2023-02-13T06:13:45;15.98;;;7.15;;
43706;SDS011;61348;53.392;-6.248;2023-02-13T06:16:12;16.65;;;7.72;;
43706;SDS011;61348;53.392;-6.248;2023-02-13T06:18:39;19.25;;;7.22;;
43706;SDS011;61348;53.392;-6.248;2023-02-13T06:21:06;14.52;;;6.78;;
43706;SDS011;61348;53.392;-6.248;2023-02-13T06:23:33;17.67;;;7.75;;
43706;SDS011;61348;53.392;-6.248;2023-02-13T06:26:03;14.38;;;7.18;;
43706;SDS011;61348;53.392;-6.248;2023-02-13T06:28:31;14.55;;;7.75;;
43706;SDS011;61348;53.392;-6.248;2023-02-13T06:30:58;14.75;;;7.13;;
43706;SDS011;61348;53.392;-6.248;2023-02-13T06:33:26;16.60;;;7.28;;
43706;SDS011;61348;53.392;-6.248;2023-02-13T06:35:53;16.35;;;7.32;;
43706;SDS011;61348;53.392;-6.248;2023-02-13T06:38:19;17.55;;;6.72;;
43706;SDS011;61348;53.392;-6.248;2023-02-13T06:40:47;16.95;;;7.63;;
43706;SDS011;61348;53.392;-6.248;2023-02-13T06:43:15;19.70;;;7.03;;
43706;SDS011;61348;53.392;-6.248;2023-02-13T06:45:43;19.73;;;8.13;;
43706;SDS011;61348;53.392;-6.248;2023-02-13T06:48:16;16.48;;;6.85;;
43706;SDS011;61348;53.392;-6.248;2023-02-13T06:50:42;17.38;;;6.95;;
43706;SDS011;61348;53.392;-6.248;2023-02-13T06:53:09;13.90;;;6.55;;
43706;SDS011;61348;53.392;-6.248;2023-02-13T06:55:36;13.75;;;6.28;;
43706;SDS011;61348;53.392;-6.248;2023-02-13T06:58:05;11.60;;;6.80;;
43706;SDS011;61348;53.392;-6.248;2023-02-13T07:00:32;15.38;;;6.82;;
43706;SDS011;61348;53.392;-6.248;2023-02-13T07:03:02;14.65;;;6.20;;
43706;SDS011;61348;53.392;-6.248;2023-02-13T07:05:31;12.23;;;5.80;;
43706;SDS011;61348;53.392;-6.248;2023-02-13T07:07:58;15.05;;;7.32;;
43706;SDS011;61348;53.392;-6.248;2023-02-13T07:10:25;15.63;;;7.93;;
43706;SDS011;61348;53.392;-6.248;2023-02-13T07:12:52;15.23;;;7.15;;
43706;SDS011;61348;53.392;-6.248;2023-02-13T07:15:35;14.15;;;6.78;;
43706;SDS011;61348;53.392;-6.248;2023-02-13T07:18:03;14.35;;;6.10;;
43706;SDS011;61348;53.392;-6.248;2023-02-13T07:20:31;11.65;;;6.10;;
43706;SDS011;61348;53.392;-6.248;2023-02-13T07:22:58;14.07;;;6.38;;
43706;SDS011;61348;53.392;-6.248;2023-02-13T07:25:27;17.00;;;6.35;;
43706;SDS011;61348;53.392;-6.248;2023-02-13T07:27:54;14.43;;;5.82;;
43706;SDS011;61348;53.392;-6.248;2023-02-13T07:30:21;14.77;;;5.95;;
43706;SDS011;61348;53.392;-6.248;2023-02-13T07:32:47;19.15;;;6.90;;
43706;SDS011;61348;53.392;-6.248;2023-02-13T07:35:14;19.20;;;7.60;;
43706;SDS011;61348;53.392;-6.248;2023-02-13T07:37:41;14.07;;;6.38;;
43706;SDS011;61348;53.392;-6.248;2023-02-13T07:40:08;21.50;;;7.13;;
43706;SDS011;61348;53.392;-6.248;2023-02-13T07:42:35;15.13;;;7.43;;
43706;SDS011;61348;53.392;-6.248;2023-02-13T07:45:02;12.43;;;6.88;;
43706;SDS011;61348;53.392;-6.248;2023-02-13T07:47:32;15.75;;;6.75;;
43706;SDS011;61348;53.392;-6.248;2023-02-13T07:50:00;21.02;;;6.90;;
43706;SDS011;61348;53.392;-6.248;2023-02-13T07:52:27;18.83;;;7.35;;
43706;SDS011;61348;53.392;-6.248;2023-02-13T07:54:54;16.25;;;7.65;;
43706;SDS011;61348;53.392;-6.248;2023-02-13T07:57:21;14.45;;;7.10;;
43706;SDS011;61348;53.392;-6.248;2023-02-13T07:59:48;14.13;;;6.82;;
43706;SDS011;61348;53.392;-6.248;2023-02-13T08:02:15;17.58;;;6.57;;
43706;SDS011;61348;53.392;-6.248;2023-02-13T08:04:44;15.65;;;7.38;;
43706;SDS011;61348;53.392;-6.248;2023-02-13T08:07:12;16.20;;;7.20;;
43706;SDS011;61348;53.392;-6.248;2023-02-13T08:09:40;18.90;;;8.52;;
43706;SDS011;61348;53.392;-6.248;2023-02-13T08:12:27;15.73;;;7.88;;
43706;SDS011;61348;53.392;-6.248;2023-02-13T08:14:54;16.23;;;7.25;;
43706;SDS011;61348;53.392;-6.248;2023-02-13T08:17:21;14.95;;;6.82;;
43706;SDS011;61348;53.392;-6.248;2023-02-13T08:19:47;14.00;;;7.07;;
43706;SDS011;61348;53.392;-6.248;2023-02-13T08:22:15;20.17;;;9.07;;
43706;SDS011;61348;53.392;-6.248;2023-02-13T08:24:41;14.75;;;7.18;;
43706;SDS011;61348;53.392;-6.248;2023-02-13T08:27:12;14.23;;;7.22;;
43706;SDS011;61348;53.392;-6.248;2023-02-13T08:29:39;14.23;;;6.97;;
43706;SDS011;61348;53.392;-6.248;2023-02-13T08:32:06;20.45;;;9.85;;
43706;SDS011;61348;53.392;-6.248;2023-02-13T08:34:33;16.48;;;6.93;;
43706;SDS011;61348;53.392;-6.248;2023-02-13T08:37:00;16.67;;;8.38;;
43706;SDS011;61348;53.392;-6.248;2023-02-13T08:39:28;13.27;;;7.95;;
43706;SDS011;61348;53.392;-6.248;2023-02-13T08:41:55;11.50;;;6.57;;
43706;SDS011;61348;53.392;-6.248;2023-02-13T08:44:21;18.92;;;9.75;;
43706;SDS011;61348;53.392;-6.248;2023-02-13T08:46:48;20.83;;;7.88;;
43706;SDS011;61348;53.392;-6.248;2023-02-13T08:49:15;19.08;;;8.77;;
43706;SDS011;61348;53.392;-6.248;2023-02-13T08:51:42;14.23;;;6.93;;
43706;SDS011;61348;53.392;-6.248;2023-02-13T08:54:09;15.20;;;7.85;;
43706;SDS011;61348;53.392;-6.248;2023-02-13T08:56:36;20.65;;;8.88;;
43706;SDS011;61348;53.392;-6.248;2023-02-13T08:59:02;13.90;;;8.82;;
43706;SDS011;61348;53.392;-6.248;2023-02-13T09:01:30;18.15;;;8.95;;
43706;SDS011;61348;53.392;-6.248;2023-02-13T09:03:57;16.02;;;7.25;;
43706;SDS011;61348;53.392;-6.248;2023-02-13T09:06:24;19.33;;;7.18;;
43706;SDS011;61348;53.392;-6.248;2023-02-13T09:08:54;19.17;;;7.95;;
43706;SDS011;61348;53.392;-6.248;2023-02-13T09:11:21;19.05;;;7.88;;
43706;SDS011;61348;53.392;-6.248;2023-02-13T09:13:51;23.42;;;9.75;;
43706;SDS011;61348;53.392;-6.248;2023-02-13T09:16:19;19.17;;;9.48;;
43706;SDS011;61348;53.392;-6.248;2023-02-13T09:18:46;22.42;;;9.23;;
43706;SDS011;61348;53.392;-6.248;2023-02-13T09:21:14;18.73;;;9.27;;
43706;SDS011;61348;53.392;-6.248;2023-02-13T09:23:41;20.17;;;8.75;;
43706;SDS011;61348;53.392;-6.248;2023-02-13T09:26:12;16.40;;;8.95;;
43706;SDS011;61348;53.392;-6.248;2023-02-13T09:28:40;22.45;;;8.90;;
43706;SDS011;61348;53.392;-6.248;2023-02-13T09:31:09;16.40;;;8.38;;
43706;SDS011;61348;53.392;-6.248;2023-02-13T09:33:40;22.48;;;9.00;;
43706;SDS011;61348;53.392;-6.248;2023-02-13T09:36:08;21.15;;;9.60;;
43706;SDS011;61348;53.392;-6.248;2023-02-13T09:38:39;25.88;;;9.90;;
43706;SDS011;61348;53.392;-6.248;2023-02-13T09:41:14;21.05;;;10.65;;
43706;SDS011;61348;53.392;-6.248;2023-02-13T09:43:55;21.23;;;9.32;;
43706;SDS011;61348;53.392;-6.248;2023-02-13T09:47:03;16.75;;;8.80;;
43706;SDS011;61348;53.392;-6.248;2023-02-13T09:49:32;21.55;;;10.57;;
43706;SDS011;61348;53.392;-6.248;2023-02-13T09:52:02;17.83;;;9.73;;
43706;SDS011;61348;53.392;-6.248;2023-02-13T09:54:29;23.67;;;10.07;;
43706;SDS011;61348;53.392;-6.248;2023-02-13T09:57:01;17.48;;;9.18;;
43706;SDS011;61348;53.392;-6.248;2023-02-13T10:05:21;18.52;;;9.07;;
43706;SDS011;61348;53.392;-6.248;2023-02-13T10:13:29;19.50;;;10.13;;
43706;SDS011;61348;53.392;-6.248;2023-02-13T10:16:18;22.23;;;9.65;;
43706;SDS011;61348;53.392;-6.248;2023-02-13T10:21:51;19.67;;;9.50;;
43706;SDS011;61348;53.392;-6.248;2023-02-13T10:24:32;18.50;;;9.93;;
43706;SDS011;61348;53.392;-6.248;2023-02-13T10:27:02;16.90;;;10.75;;
43706;SDS011;61348;53.392;-6.248;2023-02-13T10:29:42;20.35;;;9.68;;
43706;SDS011;61348;53.392;-6.248;2023-02-13T10:35:03;23.02;;;10.30;;
43706;SDS011;61348;53.392;-6.248;2023-02-13T10:37:43;19.08;;;10.25;;
43706;SDS011;61348;53.392;-6.248;2023-02-13T10:40:17;22.08;;;11.82;;
43706;SDS011;61348;53.392;-6.248;2023-02-13T10:42:46;23.13;;;10.15;;
43706;SDS011;61348;53.392;-6.248;2023-02-13T10:51:24;22.77;;;10.05;;
43706;SDS011;61348;53.392;-6.248;2023-02-13T11:06:32;17.45;;;10.00;;
43706;SDS011;61348;53.392;-6.248;2023-02-13T11:09:01;27.00;;;10.98;;
43706;SDS011;61348;53.392;-6.248;2023-02-13T11:11:31;21.23;;;11.23;;
43706;SDS011;61348;53.392;-6.248;2023-02-13T11:24:41;19.90;;;9.75;;
43706;SDS011;61348;53.392;-6.248;2023-02-13T11:27:15;17.52;;;9.38;;
43706;SDS011;61348;53.392;-6.248;2023-02-13T11:29:55;21.85;;;10.90;;
43706;SDS011;61348;53.392;-6.248;2023-02-13T11:32:26;21.02;;;10.18;;
43706;SDS011;61348;53.392;-6.248;2023-02-13T11:34:54;19.85;;;10.73;;
43706;SDS011;61348;53.392;-6.248;2023-02-13T11:37:30;18.92;;;11.75;;
43706;SDS011;61348;53.392;-6.248;2023-02-13T11:39:58;19.13;;;9.45;;
43706;SDS011;61348;53.392;-6.248;2023-02-13T11:42:45;23.55;;;11.10;;
43706;SDS011;61348;53.392;-6.248;2023-02-13T11:45:20;18.38;;;10.07;;
43706;SDS011;61348;53.392;-6.248;2023-02-13T11:47:49;19.77;;;10.02;;
43706;SDS011;61348;53.392;-6.248;2023-02-13T11:50:32;21.67;;;11.32;;
43706;SDS011;61348;53.392;-6.248;2023-02-13T11:53:05;26.85;;;10.88;;
43706;SDS011;61348;53.392;-6.248;2023-02-13T11:55:59;15.70;;;9.68;;
43706;SDS011;61348;53.392;-6.248;2023-02-13T11:58:28;19.00;;;10.98;;
43706;SDS011;61348;53.392;-6.248;2023-02-13T12:01:39;24.10;;;11.35;;
43706;SDS011;61348;53.392;-6.248;2023-02-13T12:04:03;18.95;;;10.32;;
43706;SDS011;61348;53.392;-6.248;2023-02-13T12:06:33;19.23;;;10.32;;
43706;SDS011;61348;53.392;-6.248;2023-02-13T12:11:50;16.08;;;10.07;;
43706;SDS011;61348;53.392;-6.248;2023-02-13T12:14:21;18.00;;;9.70;;
43706;SDS011;61348;53.392;-6.248;2023-02-13T12:16:56;21.42;;;10.15;;
43706;SDS011;61348;53.392;-6.248;2023-02-13T12:19:54;20.40;;;10.23;;
43706;SDS011;61348;53.392;-6.248;2023-02-13T12:30:58;20.38;;;10.55;;
43706;SDS011;61348;53.392;-6.248;2023-02-13T12:39:16;22.73;;;10.48;;
43706;SDS011;61348;53.392;-6.248;2023-02-13T12:44:57;16.63;;;10.13;;
43706;SDS011;61348;53.392;-6.248;2023-02-13T12:47:29;16.92;;;9.85;;
43706;SDS011;61348;53.392;-6.248;2023-02-13T13:25:13;29.10;;;11.18;;
43706;SDS011;61348;53.392;-6.248;2023-02-13T13:27:48;15.35;;;10.20;;
43706;SDS011;61348;53.392;-6.248;2023-02-13T13:30:20;18.67;;;9.75;;
43706;SDS011;61348;53.392;-6.248;2023-02-13T13:41:34;14.93;;;9.27;;
43706;SDS011;61348;53.392;-6.248;2023-02-13T13:46:53;20.23;;;9.35;;
43706;SDS011;61348;53.392;-6.248;2023-02-13T13:52:32;20.95;;;10.82;;
43706;SDS011;61348;53.392;-6.248;2023-02-13T13:55:00;22.10;;;11.07;;
43706;SDS011;61348;53.392;-6.248;2023-02-13T14:05:17;18.08;;;10.13;;
43706;SDS011;61348;53.392;-6.248;2023-02-13T14:07:51;17.52;;;10.85;;
43706;SDS011;61348;53.392;-6.248;2023-02-13T14:12:48;18.95;;;10.82;;
43706;SDS011;61348;53.392;-6.248;2023-02-13T14:34:22;17.65;;;10.82;;
43706;SDS011;61348;53.392;-6.248;2023-02-13T14:36:46;20.17;;;11.98;;
43706;SDS011;61348;53.392;-6.248;2023-02-13T14:39:28;18.08;;;10.95;;
43706;SDS011;61348;53.392;-6.248;2023-02-13T14:41:59;20.35;;;9.82;;
43706;SDS011;61348;53.392;-6.248;2023-02-13T14:49:53;17.50;;;10.90;;
43706;SDS011;61348;53.392;-6.248;2023-02-13T14:52:22;18.65;;;10.75;;
43706;SDS011;61348;53.392;-6.248;2023-02-13T14:54:54;17.42;;;9.93;;
43706;SDS011;61348;53.392;-6.248;2023-02-13T14:57:27;18.90;;;10.60;;
43706;SDS011;61348;53.392;-6.248;2023-02-13T14:59:58;18.65;;;10.52;;
43706;SDS011;61348;53.392;-6.248;2023-02-13T15:02:40;21.85;;;10.68;;
43706;SDS011;61348;53.392;-6.248;2023-02-13T15:07:49;18.38;;;10.82;;
43706;SDS011;61348;53.392;-6.248;2023-02-13T15:13:02;21.17;;;10.18;;
43706;SDS011;61348;53.392;-6.248;2023-02-13T15:15:33;19.73;;;10.57;;
43706;SDS011;61348;53.392;-6.248;2023-02-13T15:18:03;28.13;;;11.73;;
43706;SDS011;61348;53.392;-6.248;2023-02-13T15:20:37;20.95;;;11.35;;
43706;SDS011;61348;53.392;-6.248;2023-02-13T15:23:07;19.90;;;10.40;;
43706;SDS011;61348;53.392;-6.248;2023-02-13T15:25:47;21.80;;;13.90;;
43706;SDS011;61348;53.392;-6.248;2023-02-13T15:28:21;24.73;;;11.48;;
43706;SDS011;61348;53.392;-6.248;2023-02-13T15:30:53;21.98;;;10.35;;
43706;SDS011;61348;53.392;-6.248;2023-02-13T15:33:24;21.92;;;11.60;;
43706;SDS011;61348;53.392;-6.248;2023-02-13T15:35:54;21.13;;;11.00;;
43706;SDS011;61348;53.392;-6.248;2023-02-13T15:40:54;24.93;;;12.37;;
43706;SDS011;61348;53.392;-6.248;2023-02-13T15:43:31;24.00;;;12.30;;
43706;SDS011;61348;53.392;-6.248;2023-02-13T15:45:59;28.13;;;12.18;;
43706;SDS011;61348;53.392;-6.248;2023-02-13T15:48:29;18.65;;;11.98;;
43706;SDS011;61348;53.392;-6.248;2023-02-13T15:51:00;20.27;;;12.10;;
43706;SDS011;61348;53.392;-6.248;2023-02-13T15:53:28;26.20;;;13.88;;
43706;SDS011;61348;53.392;-6.248;2023-02-13T15:56:00;22.60;;;13.80;;
43706;SDS011;61348;53.392;-6.248;2023-02-13T15:58:30;21.65;;;11.80;;
43706;SDS011;61348;53.392;-6.248;2023-02-13T16:01:03;20.83;;;12.45;;
43706;SDS011;61348;53.392;-6.248;2023-02-13T16:03:33;24.42;;;13.32;;
43706;SDS011;61348;53.392;-6.248;2023-02-13T16:06:03;27.08;;;14.85;;
43706;SDS011;61348;53.392;-6.248;2023-02-13T16:08:32;21.85;;;14.07;;
43706;SDS011;61348;53.392;-6.248;2023-02-13T16:11:24;23.88;;;15.18;;
43706;SDS011;61348;53.392;-6.248;2023-02-13T16:13:53;27.73;;;13.75;;
43706;SDS011;61348;53.392;-6.248;2023-02-13T16:16:27;23.02;;;14.45;;
43706;SDS011;61348;53.392;-6.248;2023-02-13T16:18:56;31.73;;;14.65;;
43706;SDS011;61348;53.392;-6.248;2023-02-13T16:21:24;29.15;;;16.77;;
43706;SDS011;61348;53.392;-6.248;2023-02-13T16:23:55;33.97;;;17.40;;
43706;SDS011;61348;53.392;-6.248;2023-02-13T16:26:27;30.60;;;15.93;;
43706;SDS011;61348;53.392;-6.248;2023-02-13T16:28:53;24.20;;;14.52;;
43706;SDS011;61348;53.392;-6.248;2023-02-13T16:31:21;28.85;;;14.15;;
43706;SDS011;61348;53.392;-6.248;2023-02-13T16:33:48;30.83;;;15.77;;
43706;SDS011;61348;53.392;-6.248;2023-02-13T16:36:17;26.33;;;15.02;;
43706;SDS011;61348;53.392;-6.248;2023-02-13T16:38:52;23.75;;;14.57;;
43706;SDS011;61348;53.392;-6.248;2023-02-13T16:49:04;26.67;;;14.90;;
43706;SDS011;61348;53.392;-6.248;2023-02-13T16:51:38;25.60;;;13.63;;
43706;SDS011;61348;53.392;-6.248;2023-02-13T16:54:29;25.08;;;13.80;;
43706;SDS011;61348;53.392;-6.248;2023-02-13T16:59:39;27.92;;;16.27;;
43706;SDS011;61348;53.392;-6.248;2023-02-13T17:07:34;34.95;;;20.23;;
43706;SDS011;61348;53.392;-6.248;2023-02-13T17:10:05;27.70;;;14.75;;
43706;SDS011;61348;53.392;-6.248;2023-02-13T17:12:47;27.77;;;16.45;;
43706;SDS011;61348;53.392;-6.248;2023-02-13T17:15:18;33.42;;;17.40;;
43706;SDS011;61348;53.392;-6.248;2023-02-13T17:17:47;27.75;;;13.98;;
43706;SDS011;61348;53.392;-6.248;2023-02-13T17:20:17;25.88;;;16.15;;
43706;SDS011;61348;53.392;-6.248;2023-02-13T17:22:46;25.65;;;13.95;;
43706;SDS011;61348;53.392;-6.248;2023-02-13T17:27:52;33.17;;;18.67;;
43706;SDS011;61348;53.392;-6.248;2023-02-13T17:30:22;30.27;;;15.23;;
43706;SDS011;61348;53.392;-6.248;2023-02-13T17:33:12;32.13;;;16.63;;
43706;SDS011;61348;53.392;-6.248;2023-02-13T17:35:40;28.73;;;16.65;;
43706;SDS011;61348;53.392;-6.248;2023-02-13T17:38:08;33.45;;;16.02;;
43706;SDS011;61348;53.392;-6.248;2023-02-13T17:40:35;32.10;;;18.63;;
43706;SDS011;61348;53.392;-6.248;2023-02-13T17:43:02;44.08;;;26.40;;
43706;SDS011;61348;53.392;-6.248;2023-02-13T17:45:30;38.13;;;23.77;;
43706;SDS011;61348;53.392;-6.248;2023-02-13T17:47:58;41.45;;;23.75;;
43706;SDS011;61348;53.392;-6.248;2023-02-13T17:50:26;41.88;;;25.92;;
43706;SDS011;61348;53.392;-6.248;2023-02-13T17:52:55;42.88;;;25.83;;
43706;SDS011;61348;53.392;-6.248;2023-02-13T17:55:25;45.90;;;26.67;;
43706;SDS011;61348;53.392;-6.248;2023-02-13T17:57:53;166.35;;;86.03;;
43706;SDS011;61348;53.392;-6.248;2023-02-13T18:00:25;86.95;;;45.85;;
43706;SDS011;61348;53.392;-6.248;2023-02-13T18:02:55;55.55;;;33.00;;
43706;SDS011;61348;53.392;-6.248;2023-02-13T18:05:23;106.80;;;49.92;;
43706;SDS011;61348;53.392;-6.248;2023-02-13T18:07:50;113.05;;;55.70;;
43706;SDS011;61348;53.392;-6.248;2023-02-13T18:12:49;75.57;;;38.97;;
43706;SDS011;61348;53.392;-6.248;2023-02-13T18:15:16;66.95;;;35.67;;
43706;SDS011;61348;53.392;-6.248;2023-02-13T18:17:45;67.45;;;33.78;;
43706;SDS011;61348;53.392;-6.248;2023-02-13T18:20:13;55.88;;;30.75;;
43706;SDS011;61348;53.392;-6.248;2023-02-13T18:22:42;41.63;;;21.30;;
43706;SDS011;61348;53.392;-6.248;2023-02-13T18:25:10;38.78;;;21.73;;
43706;SDS011;61348;53.392;-6.248;2023-02-13T18:27:37;43.70;;;21.38;;